Stellar, Texas
Current Conditions -  °F | °C
As of 5:50 AM on Thursday 27 Nov 2014 (Local Time) from K3T5 Reporting Station
Clear Clear  
Wind Chill: 43°   Ceiling: Unl
Heat Index: 43°   Visibility: 10mi
Dew Point: 39°   Wind: 3mph
Humidity: 86%   Direction: 20°NNE
Pressure: 30.42"   Gusts: NA
Location:  29.7805°N, 97.1131°W
Report Text: K3T5 271150Z AUTO 02003KT 10SM CLR 06/04 A3042 RMK AO2 T00600038 10111 20056
Loading
Personal Weather Stations






























Interactive Weather Map New forecast layout! Learn more

10-Day Weather Forecast

Advertisements
Track Severe Weather on mobile